| Station | Date | Time | Temp (°F) | RH (%) | Dew Pt (°F) | Wind Spd (mph) | Wind Dir (°) | Wind Gust (mph) | Latest Rain (In) | Daily Rain (In) | Daily Max Temp (°F) | Daily Min Temp (°F) |
|---|---|---|---|---|---|---|---|---|---|---|---|---|
| Montesol | 9/4/26 | 0030 | 48.9 5.2 | - | - | - | - | - | 0.00 | 0.53 | 64.8 3.0 | 48.9 3.6 |
| Pope Valley (Weeks Lake) | 9/4/26 | 0030 | 52.6 4.9 | 92 17 | 50.3 0.6 | 1.1 0.1 | WSW | 257 | 2.2 2.2 | 0.00 | 0.03 | 68.5 6.2 | 52.1 3.4 |
| Dollarhide Base | 9/4/26 | 0030 | 58.1 0.6 | 87 7 | 54.4 1.5 | 1.3 1.9 | WNW | 284 | 4.2 2.6 | 0.00 | 0.00 | 71.7 5.5 | 57.9 1.2 |
| Dollarhide 16A Remote | 9/4/26 | 0030 | 56.1 2.6 | 91 10 | 53.5 0.6 | - | - | - | - | - | 71.7 5.1 | 55.8 1.3 |
| Hardin Rd (Eakle) | 9/4/26 | 0030 | 57.5 1.5 | - | - | - | - | - | - | - | 69.6 7.6 | 57.5 3.0 |
| Angwin | 9/4/26 | 0030 | 51.5 0.1 | 94 1 | 49.9 0.2 | 2.8 1.0 | WNW | 291 | 7.9 1.1 | 0.00 | 0.24 | 57.8 7.8 | 51.4 0.5 |
| Lower Angwin (Pioneer) | 9/4/26 | 0030 | 52.6 0.7 | - | - | 1.2 1.7 | W | 260 | 4.4 3.9 | - | - | 61.1 7.9 | 52.5 0.0 |
| Las Posadas (Cal Fire) | 9/4/26 | 0030 | 54.8 0.4 | 94 6 | 53.1 1.5 | 7.0 3.1 | WSW | 246 | 11.0 5.7 | 0.00 | 0.15 | 62.4 7.8 | 54.6 1.6 |
| Lower Chiles Valley (Brown) | 9/4/26 | 0030 | 57.7 0.5 | 92 10 | 55.5 3.5 | 2.3 1.2 | W | 260 | 4.8 3.0 | 0.00 | 0.13 | 68.0 5.8 | 55.2 8.1 |
| Moss Creek Vineyard/Reservior | 9/4/26 | 0030 | 59.0 3.0 | 87 2 | 55.0 3.6 | - | - | - | 0.00 | 0.04 | 67.1 9.2 | 52.8 0.0 |
| Max | 59.0 | 94 | 55.5 | 7.0 | - | 11.0 | 0.00 | 0.53 | 71.7 | 57.9 | ||
| Avg | 54.9 | 91 | 53.1 | 2.6 | - | 5.8 | 0.00 | - | - | - | ||
| Min | 48.9 | 87 | 49.9 | 1.1 | - | 2.2 | 0.00 | 0.00 | 57.8 | 48.9 |
| Station | Date | Time | Temp (°F) | RH (%) | Dew Pt (°F) | Wind Spd (mph) | Wind Dir (°) | Wind Gust (mph) | Latest Rain (In) | Daily Rain (In) | Daily Max Temp (°F) | Daily Min Temp (°F) |
|---|---|---|---|---|---|---|---|---|---|---|---|---|
| Tenma (North Calistoga) | 9/4/26 | 0030 | 57.3 1.8 | - | - | - | - | - | 0.00 | 0.11 | 70.5 6.3 | 55.7 0.2 |
| Calistoga-Solari | 9/4/26 | 0030 | 55.6 1.2 | 98 4 | 54.9 2.3 | 2.0 0.3 | W | 267 | 3.5 0.7 | 0.00 | 0.12 | 68.7 5.8 | 55.0 1.2 |
| Calistoga-North | 9/4/26 | 0030 | 55.6 0.7 | 97 4 | 54.7 1.8 | - | - | - | 0.00 | 0.06 | 68.7 9.3 | 55.4 1.0 |
| Twomey Calistoga | 9/4/26 | 0030 | 53.8 2.4 | 95 6 | 52.3 0.5 | 1.3 0.7 | W | 264 | 2.2 2.2 | 0.00 | 0.08 | 74.2 3.4 | 53.0 3.2 |
| Paloma | 9/4/26 | 0030 | 55.7 3.1 | 93 11 | 53.8 0.2 | 0.4 2.4 | NNE | 31 | 2.6 4.0 | 0.00 | 0.07 | 69.5 8.5 | 55.7 0.4 |
| Calistoga (Ranch 78) | 9/4/26 | 0030 | 55.3 2.0 | 94 10 | 53.6 1.1 | 1.5 1.9 | W | 279 | 2.8 3.6 | 0.00 | 0.06 | 71.6 4.5 | 55.3 0.5 |
| Diamond Mtn (Schramsberg) | 9/4/26 | 0030 | 55.0 0.5 | 96 9 | 54.0 2.3 | - | - | - | 0.00 | 0.08 | 69.7 3.3 | 54.9 0.4 |
| Diamond Mtn (McEachran) | 9/4/26 | 0030 | 57.4 0.4 | 92 7 | 55.0 1.9 | - | - | - | - | - | 69.1 3.9 | 56.0 0.6 |
| Deer Park | 9/4/26 | 0030 | 57.5 0.2 | 89 6 | 54.2 1.8 | 3.2 0.7 | NNW | 343 | 7.9 0.3 | 0.00 | 0.04 | 66.7 9.2 | 56.8 0.8 |
| St. Helena-North | 9/4/26 | 0030 | 56.1 2.9 | 89 12 | 53.0 1.2 | 2.3 1.4 | W | 281 | 4.2 1.5 | 0.00 | 0.10 | 72.6 4.8 | 55.8 0.1 |
| St. Helena (NVV Office) | 9/4/26 | 0030 | 58.4 1.1 | - | - | 0.5 0.9 | WNW | 287 | 2.3 2.5 | 0.00 | 0.02 | 73.2 5.2 | 57.5 1.7 |
| Tiara Fria (East St. Helena) | 9/4/26 | 0030 | 55.8 4.0 | 92 14 | 53.5 0.5 | 0.3 2.2 | NNE | 24 | 1.4 5.3 | 0.00 | 0.01 | 70.4 6.8 | 55.2 1.8 |
| Prisoner Winery | 9/4/26 | 0030 | 57.1 1.3 | 96 8 | 56.0 3.8 | 0.5 0.3 | SW | 232 | 2.1 0.3 | 0.00 | 0.02 | 73.4 3.5 | 53.0 0.3 |
| Rutherford Hill Estate | 9/4/26 | 0030 | 57.7 0.5 | 94 9 | 55.9 3.3 | 0.2 0.3 | NNW | 333 | 1.5 0.4 | 0.00 | 0.03 | 69.5 8.4 | 56.4 0.6 |
| Rutherford-North (Mee Ln) | 9/4/26 | 0030 | 53.9 0.1 | 94 6 | 52.2 1.6 | 0.9 0.2 | W | 272 | 1.8 0.2 | 0.00 | 0.02 | 73.4 3.5 | 50.9 0.9 |
| Rutherford (STS) | 9/4/26 | 0030 | 55.9 3.8 | 88 4 | 52.4 2.6 | 1.2 0.5 | WSW | 252 | 2.0 0.0 | 0.00 | 0.02 | 75.2 3.7 | 51.2 0.7 |
| Silver Oak OV | 9/4/26 | 0030 | 56.5 2.4 | 94 7 | 54.7 4.5 | 0.9 0.3 | WSW | 255 | 2.2 0.4 | 0.00 | 0.03 | 70.9 5.5 | 51.2 1.3 |
| Oakville-NE (Ranch 88) | 9/4/26 | 0030 | 56.0 3.7 | 98 16 | 55.4 8.7 | 0.0 0.0 | N | 0 | 0.0 0.0 | 0.00 | 0.03 | 71.3 5.8 | 49.9 1.7 |
| Crossroads Ranch | 9/4/26 | 0030 | 57.0 2.4 | 93 7 | 55.1 4.4 | 0.7 0.1 | SW | 234 | 1.8 1.8 | 0.00 | 0.05 | 70.6 5.4 | 52.0 0.8 |
| Oakville | 9/4/26 | 0030 | 56.0 0.5 | 93 8 | 54.1 2.9 | 0.5 0.9 | NW | 318 | 1.8 3.3 | 0.00 | 0.03 | 71.1 5.5 | 52.2 0.4 |
| To Kalon Remote (TKKE) | 9/4/26 | 0030 | 57.0 1.6 | - | - | - | - | - | - | - | 74.7 3.9 | 54.8 1.2 |
| To Kalon | 9/4/26 | 0030 | 58.0 3.1 | 95 19 | 56.6 3.0 | 1.6 1.1 | W | 276 | 3.1 2.6 | 0.00 | 0.00 | 72.0 4.8 | 56.6 3.0 |
| To Kalon Remote (TKN5) | 9/4/26 | 0030 | 58.2 1.1 | - | - | - | - | - | - | - | 72.9 4.5 | 56.7 3.1 |
| Jump Rock | 9/4/26 | 0030 | 53.3 4.4 | 98 2 | 52.8 4.9 | 0.0 0.4 | N | 355 | 0.3 1.9 | 0.00 | 0.32 | 62.2 7.3 | 47.9 4.2 |
| State Lane Ranch | 9/4/26 | 0030 | 56.4 0.8 | 97 7 | 55.5 2.9 | 0.3 1.1 | NNW | 330 | 2.0 0.7 | 0.00 | 0.04 | 68.9 8.5 | 54.7 4.2 |
| Yountville (Ranch 67) | 9/4/26 | 0030 | 56.3 1.6 | 93 9 | 54.5 4.5 | 0.2 1.5 | E | 92 | 1.2 2.3 | 0.00 | 0.04 | 68.4 7.7 | 54.6 3.4 |
| Borreo (Soda Canyon) | 9/4/26 | 0030 | 55.5 2.9 | 95 3 | 54.2 3.8 | 0.0 1.9 | N | 0 | 0.0 5.2 | 0.00 | 0.25 | 63.9 10.3 | 53.6 2.8 |
| Wappo Hill Floor | 9/4/26 | 0030 | 55.9 1.3 | 100 8 | 55.8 3.4 | 0.9 0.6 | SW | 214 | 2.0 0.7 | 0.00 | 0.04 | 69.2 7.3 | 54.8 2.7 |
| Wappo Hill | 9/4/26 | 0030 | 59.1 0.3 | 94 16 | 57.4 4.8 | 1.4 0.7 | SE | 144 | 2.5 1.7 | 0.00 | 0.02 | 69.0 7.3 | 56.3 1.7 |
| Stags Leap Dist (Chimney Rock) | 9/4/26 | 0030 | 57.3 3.1 | 97 5 | 56.5 4.5 | 0.2 0.5 | SE | 132 | 0.9 1.0 | 0.00 | 0.08 | 68.7 8.4 | 55.2 2.8 |
| Stags Leap Dist (Silverado Vineyards) | 9/4/26 | 0030 | 56.4 1.6 | 93 4 | 54.4 2.8 | 0.2 0.4 | ESE | 122 | 1.2 2.0 | 0.00 | 0.03 | 68.0 8.2 | 55.4 3.3 |
| Yountville-SE (Ranch 85) | 9/4/26 | 0030 | 57.3 1.9 | 100 12 | 57.3 5.3 | 0.0 0.4 | N | 0 | 0.0 2.0 | 0.00 | 0.06 | 68.6 8.7 | 54.5 1.6 |
| Yountville-South (Ranch 87) | 9/4/26 | 0030 | 57.9 3.3 | 100 9 | 57.9 5.8 | 0.5 0.1 | SW | 228 | 2.3 0.3 | 0.01 | 0.04 | 69.3 7.0 | 53.9 1.5 |
| Max | 59.1 | 100 | 57.9 | 3.2 | - | 7.9 | 0.01 | 0.32 | 75.2 | 57.5 | ||
| Avg | 56.4 | 95 | 54.8 | 0.8 | - | 2.1 | 0.00 | - | - | - | ||
| Min | 53.3 | 88 | 52.2 | 0.0 | - | 0.0 | 0.00 | 0.00 | 62.2 | 47.9 |
| Station | Date | Time | Temp (°F) | RH (%) | Dew Pt (°F) | Wind Spd (mph) | Wind Dir (°) | Wind Gust (mph) | Latest Rain (In) | Daily Rain (In) | Daily Max Temp (°F) | Daily Min Temp (°F) |
|---|---|---|---|---|---|---|---|---|---|---|---|---|
| Mt. Veeder | 9/4/26 | 0030 | 53.6 0.1 | 100 7 | 53.6 2.0 | 0.3 0.9 | WSW | 246 | 1.8 7.8 | 0.00 | 0.33 | 61.5 6.7 | 53.4 0.4 |
| Soda Canyon | 9/4/26 | 0030 | 56.7 5.0 | 91 2 | 54.2 5.4 | 0.1 0.5 | NNW | 346 | 0.7 0.8 | 0.00 | 0.22 | 67.5 8.3 | 52.2 0.5 |
| Big Ranch Rd | 9/4/26 | 0030 | 58.0 3.4 | - | - | - | - | - | - | - | 69.8 8.6 | 53.1 0.4 |
| Oak Knoll-East (Ranch 53) | 9/4/26 | 0030 | 58.9 4.1 | 95 10 | 57.4 7.1 | 0.0 0.2 | N | 0 | 0.0 1.4 | 0.00 | 0.14 | 68.9 9.3 | 52.2 0.9 |
| Napa-NW (Ranch 54) | 9/4/26 | 0030 | 58.2 4.8 | 100 13 | 58.2 8.6 | 0.2 0.1 | SW | 226 | 2.1 1.0 | 0.00 | 0.16 | 71.1 8.4 | 52.3 0.9 |
| Frisinger Napa-NW | 9/4/26 | 0030 | 57.4 3.9 | 94 5 | 55.8 5.3 | 0.8 0.5 | SW | 236 | 2.3 0.4 | 0.00 | 0.20 | 69.0 7.3 | 52.3 1.2 |
| Napa-North (Ranch 29) | 9/4/26 | 0030 | 57.0 1.0 | 100 7 | 57.0 3.1 | 0.1 0.6 | W | 262 | 0.8 0.9 | 0.00 | 0.08 | 67.2 8.4 | 54.4 1.9 |
| Mount George (Napa East) | 9/4/26 | 0030 | 57.4 4.3 | 96 3 | 56.2 5.2 | 0.5 0.2 | SE | 140 | 1.9 0.3 | 0.00 | 0.11 | 76.0 1.8 | 51.5 1.1 |
| Napa-East (Palmaz 300') | 9/4/26 | 0030 | 58.1 3.8 | 100 7 | 58.0 5.8 | 1.0 1.0 | ESE | 122 | 1.7 1.7 | 0.00 | 0.11 | 67.2 10.9 | 53.5 0.6 |
| Napa-East (Palmaz 1200') | 7/4/26 | 0630 | 49.8 0.1 | 72 2 | 40.8 1.0 | 0.2 0.5 | E | 79 | 2.0 0.4 | - | - | 51.0 1.7 | 48.0 0.9 |
| Napa-East (Palmaz 1400') | 9/4/26 | 0030 | 55.7 2.3 | 100 0 | 55.7 2.3 | 0.6 0.1 | SSW | 197 | 3.1 0.0 | 0.00 | 0.20 | 60.1 9.6 | 53.4 0.2 |
| Wooden Valley | 9/4/26 | 0030 | 57.5 0.3 | 91 13 | 54.9 3.9 | 0.0 2.0 | N | 0 | 0.0 5.6 | 0.00 | 0.03 | 67.5 5.5 | 56.9 6.1 |
| Napa-West Upper (Truchard) | 9/4/26 | 0030 | 56.3 0.7 | 0 100 | -60.8 116.4 | 0.4 0.4 | W | 274 | 3.6 3.6 | 0.00 | 0.06 | 68.4 9.8 | 54.8 0.6 |
| Napa-West Lower (Truchard) | 9/4/26 | 0030 | 54.9 5.0 | 92 4 | 52.6 6.0 | - | - | - | - | - | 68.5 10.1 | 49.0 0.5 |
| Sunset Rd | 9/4/26 | 0030 | 59.0 6.2 | 87 2 | 55.3 5.7 | 3.2 2.9 | WNW | 285 | 6.7 5.3 | 0.00 | 0.09 | 69.3 6.6 | 51.8 0.6 |
| Napa-South (Toyon Farms) | 9/4/26 | 0030 | 57.9 1.1 | 99 6 | 57.7 2.9 | 0.0 0.0 | N | 0 | 0.0 0.0 | 0.00 | 0.05 | 67.8 9.2 | 55.1 0.0 |
| Dealy Lane (Ranch 80) | 9/4/26 | 0045 | 57.1 5.0 | 93 2 | 55.2 5.6 | 0.4 0.3 | WNW | 289 | 1.4 0.2 | 0.00 | 0.06 | 69.5 7.2 | 51.5 0.5 |
| Carneros (Saintsbury) | 9/4/26 | 0030 | 51.3 3.6 | 100 10 | 51.3 0.9 | 1.7 1.3 | W | 264 | 3.0 1.4 | 0.00 | 0.07 | 66.2 9.6 | 51.2 0.1 |
| Suscol Lower (Ranch 35) | 9/4/26 | 0030 | 57.7 1.5 | 100 10 | 57.7 4.6 | 0.5 0.6 | N | 3 | 1.8 0.9 | 0.00 | 0.13 | 68.4 7.7 | 53.9 0.2 |
| Suscol Mtn (Ranch 93) | 9/4/26 | 0030 | 56.4 0.6 | 100 6 | 56.3 2.5 | 7.1 2.5 | NW | 323 | 10.6 2.1 | 0.00 | 0.22 | 62.6 12.1 | 55.3 0.2 |
| Suscol Upper (Ranch 92) | 9/4/26 | 0030 | 56.9 0.4 | 0 91 | -58.4 112.4 | 1.9 1.9 | WSW | 240 | 5.9 3.7 | 0.00 | 0.10 | 63.3 11.3 | 55.8 0.3 |
| Carneros (Mitsuko) | 9/4/26 | 0030 | 58.4 3.3 | - | - | - | - | - | - | - | 67.7 9.5 | 51.8 2.6 |
| Sugarloaf West | 9/4/26 | 0030 | 57.8 2.1 | 93 4 | 55.8 3.2 | 0.4 1.1 | ENE | 64 | 1.4 1.7 | 0.00 | 0.14 | 67.6 6.6 | 55.5 1.7 |
| Stanly (Ranch 45) | 9/4/26 | 0030 | 54.8 2.6 | 95 8 | 53.3 0.2 | 1.4 0.2 | W | 264 | 3.8 1.4 | 0.00 | 0.14 | 67.6 7.3 | 54.4 3.9 |
| Carneros (Las Amigas Rd) | 9/4/26 | 0030 | 59.2 1.1 | - | - | - | - | - | - | - | 67.9 7.4 | 53.6 1.6 |
| Carneros (Milton Rd) | 9/4/26 | 0030 | 59.6 2.1 | 91 4 | 56.8 3.3 | - | - | - | 0.00 | 0.00 | 67.6 7.5 | 52.1 1.1 |
| Carneros (Ranch 71) | 9/4/26 | 0030 | 58.2 1.0 | 94 3 | 56.4 2.0 | 2.6 0.9 | NNW | 330 | 5.1 1.0 | 0.00 | 0.06 | 67.9 6.9 | 57.4 0.6 |
| Carneros Upper (Ranch 81) | 9/4/26 | 0030 | 58.3 1.4 | 100 10 | 58.2 4.3 | 6.8 2.1 | W | 271 | 9.9 3.0 | - | - | 67.4 8.6 | 57.1 0.5 |
| Carneros Lower (Ranch 81) | 9/4/26 | 0030 | 57.4 1.2 | 0 89 | -60.0 113.1 | 0.1 0.2 | NW | 304 | 2.0 0.1 | 0.00 | 0.00 | 68.4 11.8 | 53.7 1.7 |
| Toyon Remote 1 | 9/4/26 | 0030 | 56.6 3.6 | - | - | - | - | - | - | - | 68.7 9.8 | 50.5 0.2 |
| Toyon Remote 2 | 9/4/26 | 0030 | 56.6 3.1 | - | - | - | - | - | - | - | 68.4 8.4 | 50.9 0.2 |
| Toyon Remote 3 | 9/4/26 | 0030 | 56.8 3.8 | - | - | - | - | - | - | - | 69.2 11.1 | 50.3 0.1 |
| Max | 59.6 | 100 | 58.2 | 7.1 | - | 10.6 | 0.00 | 0.33 | 76.0 | 57.4 | ||
| Avg | 57.1 | 84 | 41.9 | 1.3 | - | 3.0 | 0.00 | - | - | - | ||
| Min | 51.3 | 0 | -60.8 | 0.0 | - | 0.0 | 0.00 | 0.00 | 60.1 | 49.0 |